sensor_id;sensor_type;location;lat;lon;timestamp;pressure;altitude;pressure_sealevel;temperature;humidity
45789;BME280;31492;54.856;26.318;2023-04-02T00:06:15;1011.9;;;6.5;73.5
45789;BME280;31492;54.856;26.318;2023-04-02T00:10:53;1011.9;;;6.5;73.6
45789;BME280;31492;54.856;26.318;2023-04-02T00:15:59;1011.9;;;6.6;73.5
45789;BME280;31492;54.856;26.318;2023-04-02T00:21:09;1011.9;;;6.6;73.4
45789;BME280;31492;54.856;26.318;2023-04-02T00:26:21;1011.9;;;6.5;73.4
45789;BME280;31492;54.856;26.318;2023-04-02T00:31:01;1011.9;;;6.5;73.5
45789;BME280;31492;54.856;26.318;2023-04-02T00:36:16;1011.9;;;6.5;73.6
45789;BME280;31492;54.856;26.318;2023-04-02T00:41:01;1012;;;6.5;73.4
45789;BME280;31492;54.856;26.318;2023-04-02T00:46:02;1012;;;6.4;73.6
45789;BME280;31492;54.856;26.318;2023-04-02T00:50:53;1012.1;;;6.4;73.9
45789;BME280;31492;54.856;26.318;2023-04-02T00:56:11;1012.1;;;6.4;73.9
45789;BME280;31492;54.856;26.318;2023-04-02T01:00:53;1012.2;;;6.4;73.7
45789;BME280;31492;54.856;26.318;2023-04-02T01:06:00;1012.3;;;6.5;73.6
45789;BME280;31492;54.856;26.318;2023-04-02T01:11:00;1012.3;;;6.5;73.5
45789;BME280;31492;54.856;26.318;2023-04-02T01:15:55;1012.3;;;6.5;73.8
45789;BME280;31492;54.856;26.318;2023-04-02T01:20:58;1012.3;;;6.4;73.7
45789;BME280;31492;54.856;26.318;2023-04-02T01:26:09;1012.3;;;6.4;73.7
45789;BME280;31492;54.856;26.318;2023-04-02T01:30:54;1012.3;;;6.4;73.8
45789;BME280;31492;54.856;26.318;2023-04-02T01:35:54;1012.4;;;6.4;73.7
45789;BME280;31492;54.856;26.318;2023-04-02T01:40:54;1012.4;;;6.4;73.8
45789;BME280;31492;54.856;26.318;2023-04-02T01:45:53;1012.5;;;6.4;73.9
45789;BME280;31492;54.856;26.318;2023-04-02T01:51:07;1012.5;;;6.3;73.9
45789;BME280;31492;54.856;26.318;2023-04-02T01:56:05;1012.5;;;6.4;73.9
45789;BME280;31492;54.856;26.318;2023-04-02T02:00:54;1012.6;;;6.4;73.9
45789;BME280;31492;54.856;26.318;2023-04-02T02:06:19;1012.6;;;6.4;74
45789;BME280;31492;54.856;26.318;2023-04-02T02:11:01;1012.6;;;6.4;74
45789;BME280;31492;54.856;26.318;2023-04-02T02:16:02;1012.7;;;6.4;73.8
45789;BME280;31492;54.856;26.318;2023-04-02T02:21:11;1012.8;;;6.4;73.9
45789;BME280;31492;54.856;26.318;2023-04-02T02:25:53;1012.8;;;6.4;73.9
45789;BME280;31492;54.856;26.318;2023-04-02T02:31:09;1012.9;;;6.3;74
45789;BME280;31492;54.856;26.318;2023-04-02T02:36:02;1012.9;;;6.3;74
45789;BME280;31492;54.856;26.318;2023-04-02T02:40:54;1013;;;6.3;73.9
45789;BME280;31492;54.856;26.318;2023-04-02T02:45:59;1013;;;6.2;74.1
45789;BME280;31492;54.856;26.318;2023-04-02T02:51:19;1013.1;;;6.2;74.1
45789;BME280;31492;54.856;26.318;2023-04-02T02:56:01;1013.1;;;6.2;74.1
45789;BME280;31492;54.856;26.318;2023-04-02T03:01:07;1013.1;;;6.2;74
45789;BME280;31492;54.856;26.318;2023-04-02T03:06:19;1013.1;;;6.3;73.8
45789;BME280;31492;54.856;26.318;2023-04-02T03:10:54;1013.2;;;6.2;73.8
45789;BME280;31492;54.856;26.318;2023-04-02T03:16:02;1013.3;;;6.1;74.4
45789;BME280;31492;54.856;26.318;2023-04-02T03:20:54;1013.4;;;6.1;74.3
45789;BME280;31492;54.856;26.318;2023-04-02T03:25:55;1013.5;;;6.1;74.2
45789;BME280;31492;54.856;26.318;2023-04-02T03:31:07;1013.5;;;6.1;74.2
45789;BME280;31492;54.856;26.318;2023-04-02T03:35:54;1013.6;;;6;74.1
45789;BME280;31492;54.856;26.318;2023-04-02T03:40:57;1013.7;;;6.1;74.1
45789;BME280;31492;54.856;26.318;2023-04-02T03:46:10;1013.8;;;6.1;74
45789;BME280;31492;54.856;26.318;2023-04-02T03:50:54;1013.9;;;6.1;74
45789;BME280;31492;54.856;26.318;2023-04-02T03:56:19;1014;;;6;74.1
45789;BME280;31492;54.856;26.318;2023-04-02T04:00:54;1014.1;;;6.1;73.9
45789;BME280;31492;54.856;26.318;2023-04-02T04:06:14;1014.1;;;6.1;73.7
45789;BME280;31492;54.856;26.318;2023-04-02T04:11:22;1014.2;;;6.1;73.6
45789;BME280;31492;54.856;26.318;2023-04-02T04:16:22;1014.3;;;6;73.6
45789;BME280;31492;54.856;26.318;2023-04-02T04:20:54;1014.4;;;6;73.5
45789;BME280;31492;54.856;26.318;2023-04-02T04:26:16;1014.5;;;5.9;73.4
45789;BME280;31492;54.856;26.318;2023-04-02T04:30:55;1014.5;;;5.9;73.4
45789;BME280;31492;54.856;26.318;2023-04-02T04:36:22;1014.6;;;5.9;73.4
45789;BME280;31492;54.856;26.318;2023-04-02T04:41:10;1014.7;;;5.8;73.4
45789;BME280;31492;54.856;26.318;2023-04-02T04:45:54;1014.8;;;5.8;73.5
45789;BME280;31492;54.856;26.318;2023-04-02T04:51:16;1014.9;;;5.7;73.5
45789;BME280;31492;54.856;26.318;2023-04-02T04:55:53;1015;;;5.7;73.5
45789;BME280;31492;54.856;26.318;2023-04-02T05:01:09;1015;;;5.6;73.6
45789;BME280;31492;54.856;26.318;2023-04-02T05:05:53;1015.1;;;5.6;73.5
45789;BME280;31492;54.856;26.318;2023-04-02T05:10:53;1015.2;;;5.6;73.3
45789;BME280;31492;54.856;26.318;2023-04-02T05:16:00;1015.3;;;5.5;73.4
45789;BME280;31492;54.856;26.318;2023-04-02T05:21:20;1015.4;;;5.5;73.4
45789;BME280;31492;54.856;26.318;2023-04-02T05:26:20;1015.4;;;5.5;73.4
45789;BME280;31492;54.856;26.318;2023-04-02T05:31:01;1015.5;;;5.5;73.4
45789;BME280;31492;54.856;26.318;2023-04-02T05:36:08;1015.6;;;5.4;73.4
45789;BME280;31492;54.856;26.318;2023-04-02T05:51:08;1015.7;;;5.4;73.3
45789;BME280;31492;54.856;26.318;2023-04-02T05:56:02;1015.9;;;5.4;73.2
45789;BME280;31492;54.856;26.318;2023-04-02T06:00:57;1016.1;;;5.4;73
45789;BME280;31492;54.856;26.318;2023-04-02T06:05:54;1016.2;;;5.3;73.1
45789;BME280;31492;54.856;26.318;2023-04-02T06:11:03;1016.3;;;5.3;73.3
45789;BME280;31492;54.856;26.318;2023-04-02T06:15:53;1016.4;;;5.3;73.2
45789;BME280;31492;54.856;26.318;2023-04-02T06:21:00;1016.5;;;5.3;72.9
45789;BME280;31492;54.856;26.318;2023-04-02T06:25:54;1016.6;;;5.3;73
45789;BME280;31492;54.856;26.318;2023-04-02T06:31:08;1016.7;;;5.3;73.1
45789;BME280;31492;54.856;26.318;2023-04-02T06:36:05;1016.8;;;5.3;73
45789;BME280;31492;54.856;26.318;2023-04-02T06:40:53;1016.8;;;5.3;73
45789;BME280;31492;54.856;26.318;2023-04-02T06:45:53;1016.9;;;5.3;73.1
45789;BME280;31492;54.856;26.318;2023-04-02T06:50:53;1017;;;5.3;73
45789;BME280;31492;54.856;26.318;2023-04-02T06:56:09;1017.1;;;5.2;73
45789;BME280;31492;54.856;26.318;2023-04-02T07:00:53;1017.3;;;5.2;73
45789;BME280;31492;54.856;26.318;2023-04-02T07:06:10;1017.3;;;5.3;73.1
45789;BME280;31492;54.856;26.318;2023-04-02T07:10:53;1017.4;;;5.2;72.9
45789;BME280;31492;54.856;26.318;2023-04-02T07:16:07;1017.5;;;5.2;72.9
45789;BME280;31492;54.856;26.318;2023-04-02T07:20:53;1017.6;;;5.2;72.8
45789;BME280;31492;54.856;26.318;2023-04-02T07:25:54;1017.7;;;5.2;72.8
45789;BME280;31492;54.856;26.318;2023-04-02T07:30:53;1017.8;;;5.2;72.4
45789;BME280;31492;54.856;26.318;2023-04-02T07:36:08;1017.9;;;5.2;72.5
45789;BME280;31492;54.856;26.318;2023-04-02T07:40:53;1018;;;5.2;72.3
45789;BME280;31492;54.856;26.318;2023-04-02T07:45:53;1018.1;;;5.2;72.3
45789;BME280;31492;54.856;26.318;2023-04-02T07:50:53;1018.2;;;5.2;72.2
45789;BME280;31492;54.856;26.318;2023-04-02T07:55:53;1018.2;;;5.2;72
45789;BME280;31492;54.856;26.318;2023-04-02T08:01:01;1018.3;;;5.1;72
45789;BME280;31492;54.856;26.318;2023-04-02T08:06:07;1018.4;;;5.1;71.9
45789;BME280;31492;54.856;26.318;2023-04-02T08:41:19;1018.8;;;5.2;71.7
45789;BME280;31492;54.856;26.318;2023-04-02T08:45:55;1018.9;;;5.2;71.4
45789;BME280;31492;54.856;26.318;2023-04-02T08:51:22;1019;;;5.1;71.3
45789;BME280;31492;54.856;26.318;2023-04-02T08:55:54;1019.1;;;5.1;71.1
45789;BME280;31492;54.856;26.318;2023-04-02T09:00:54;1019.2;;;5.1;71.2
45789;BME280;31492;54.856;26.318;2023-04-02T09:05:59;1019.3;;;5;71.2
45789;BME280;31492;54.856;26.318;2023-04-02T09:10:54;1019.4;;;5;71.2
45789;BME280;31492;54.856;26.318;2023-04-02T09:16:02;1019.4;;;4.9;71.2
45789;BME280;31492;54.856;26.318;2023-04-02T09:20:53;1019.5;;;4.9;71.4
45789;BME280;31492;54.856;26.318;2023-04-02T09:26:16;1019.6;;;4.9;71.3
45789;BME280;31492;54.856;26.318;2023-04-02T09:31:11;1019.7;;;4.9;71
45789;BME280;31492;54.856;26.318;2023-04-02T09:35:54;1019.8;;;4.9;70.7
45789;BME280;31492;54.856;26.318;2023-04-02T09:40:56;1019.9;;;4.8;70.6
45789;BME280;31492;54.856;26.318;2023-04-02T09:46:23;1020;;;4.8;70.8
45789;BME280;31492;54.856;26.318;2023-04-02T09:51:11;1020.1;;;4.8;70.6
45789;BME280;31492;54.856;26.318;2023-04-02T09:56:05;1020.2;;;4.7;70.7
45789;BME280;31492;54.856;26.318;2023-04-02T10:01:12;1020.2;;;4.7;71
45789;BME280;31492;54.856;26.318;2023-04-02T10:06:08;1020.3;;;4.8;71.1
45789;BME280;31492;54.856;26.318;2023-04-02T10:11:25;1020.3;;;4.9;71
45789;BME280;31492;54.856;26.318;2023-04-02T10:16:08;1020.4;;;5;71.5
45789;BME280;31492;54.856;26.318;2023-04-02T10:21:08;1020.6;;;5;71.4
45789;BME280;31492;54.856;26.318;2023-04-02T10:26:12;1020.6;;;4.9;71.2
45789;BME280;31492;54.856;26.318;2023-04-02T10:31:02;1020.7;;;5;71.4
45789;BME280;31492;54.856;26.318;2023-04-02T10:35:55;1020.7;;;5;71.2
45789;BME280;31492;54.856;26.318;2023-04-02T10:40:59;1020.8;;;5;71
45789;BME280;31492;54.856;26.318;2023-04-02T10:46:19;1020.8;;;5;71.2
45789;BME280;31492;54.856;26.318;2023-04-02T10:50:54;1020.9;;;5.1;71
45789;BME280;31492;54.856;26.318;2023-04-02T10:56:00;1020.9;;;5.1;70.9
45789;BME280;31492;54.856;26.318;2023-04-02T11:01:22;1021;;;5.1;70.8
45789;BME280;31492;54.856;26.318;2023-04-02T11:06:00;1021.1;;;5.1;70.7
45789;BME280;31492;54.856;26.318;2023-04-02T11:10:54;1021.2;;;5.1;70.5
45789;BME280;31492;54.856;26.318;2023-04-02T11:16:10;1021.3;;;5.2;71
45789;BME280;31492;54.856;26.318;2023-04-02T11:20:54;1021.4;;;5.1;70.8
45789;BME280;31492;54.856;26.318;2023-04-02T11:26:25;1021.5;;;5.2;71.1
45789;BME280;31492;54.856;26.318;2023-04-02T11:31:09;1021.6;;;5.2;71.1
45789;BME280;31492;54.856;26.318;2023-04-02T11:35:53;1021.6;;;5.3;71.3
45789;BME280;31492;54.856;26.318;2023-04-02T11:40:53;1021.7;;;5.3;71.5
45789;BME280;31492;54.856;26.318;2023-04-02T11:45:53;1021.7;;;5.3;71.2
45789;BME280;31492;54.856;26.318;2023-04-02T11:50:53;1021.8;;;5.3;71.1
45789;BME280;31492;54.856;26.318;2023-04-02T11:56:16;1021.9;;;5.3;70.9
45789;BME280;31492;54.856;26.318;2023-04-02T12:01:44;1022;;;5.2;70.7
45789;BME280;31492;54.856;26.318;2023-04-02T12:06:00;1022.1;;;5.1;71.2
45789;BME280;31492;54.856;26.318;2023-04-02T12:11:01;1022.1;;;5.1;71.1
45789;BME280;31492;54.856;26.318;2023-04-02T12:15:55;1022.2;;;5;71.4
45789;BME280;31492;54.856;26.318;2023-04-02T12:21:14;1022.2;;;5;71.4
45789;BME280;31492;54.856;26.318;2023-04-02T12:25:55;1022.3;;;5;71.5
45789;BME280;31492;54.856;26.318;2023-04-02T12:31:14;1022.3;;;5;71.4
45789;BME280;31492;54.856;26.318;2023-04-02T12:35:54;1022.4;;;5.1;71.3
45789;BME280;31492;54.856;26.318;2023-04-02T12:41:17;1022.4;;;5;71.2
45789;BME280;31492;54.856;26.318;2023-04-02T12:46:13;1022.4;;;4.9;71.7
45789;BME280;31492;54.856;26.318;2023-04-02T12:51:05;1022.4;;;5;71.7
45789;BME280;31492;54.856;26.318;2023-04-02T12:55:53;1022.5;;;5;71.5
45789;BME280;31492;54.856;26.318;2023-04-02T13:01:09;1022.6;;;5.1;71.6
45789;BME280;31492;54.856;26.318;2023-04-02T13:06:21;1022.7;;;5.1;71.6
45789;BME280;31492;54.856;26.318;2023-04-02T13:11:07;1022.7;;;5;71.5
45789;BME280;31492;54.856;26.318;2023-04-02T13:16:21;1022.8;;;5.1;71.7
45789;BME280;31492;54.856;26.318;2023-04-02T13:21:20;1022.9;;;5.1;71.8
45789;BME280;31492;54.856;26.318;2023-04-02T13:26:10;1022.9;;;5.1;71.9
45789;BME280;31492;54.856;26.318;2023-04-02T13:30:53;1022.9;;;5.2;71.8
45789;BME280;31492;54.856;26.318;2023-04-02T13:35:59;1022.9;;;5.2;71.7
45789;BME280;31492;54.856;26.318;2023-04-02T13:40:53;1022.9;;;5.2;71.8
45789;BME280;31492;54.856;26.318;2023-04-02T13:45:53;1023;;;5.3;71.9
45789;BME280;31492;54.856;26.318;2023-04-02T13:51:00;1023.1;;;5.4;71.3
45789;BME280;31492;54.856;26.318;2023-04-02T13:56:07;1023.1;;;5.5;71.3
45789;BME280;31492;54.856;26.318;2023-04-02T14:01:13;1023.3;;;5.5;71.4
45789;BME280;31492;54.856;26.318;2023-04-02T14:06:23;1023.3;;;5.6;71.1
45789;BME280;31492;54.856;26.318;2023-04-02T14:10:56;1023.4;;;5.6;71.3
45789;BME280;31492;54.856;26.318;2023-04-02T14:16:03;1023.4;;;5.7;71.3
45789;BME280;31492;54.856;26.318;2023-04-02T14:21:23;1023.5;;;5.7;71.1
45789;BME280;31492;54.856;26.318;2023-04-02T14:26:09;1023.6;;;5.8;70.8
45789;BME280;31492;54.856;26.318;2023-04-02T14:30:55;1023.6;;;5.8;70.5
45789;BME280;31492;54.856;26.318;2023-04-02T14:36:12;1023.7;;;5.8;70.7
45789;BME280;31492;54.856;26.318;2023-04-02T14:40:54;1023.7;;;5.8;70.9
45789;BME280;31492;54.856;26.318;2023-04-02T14:46:07;1023.7;;;5.7;70.2
45789;BME280;31492;54.856;26.318;2023-04-02T14:50:55;1023.8;;;5.7;70.4
45789;BME280;31492;54.856;26.318;2023-04-02T14:55:53;1023.9;;;5.7;70.5
45789;BME280;31492;54.856;26.318;2023-04-02T15:00:54;1023.9;;;5.7;70.7
45789;BME280;31492;54.856;26.318;2023-04-02T15:05:54;1024;;;5.7;70.3
45789;BME280;31492;54.856;26.318;2023-04-02T15:11:22;1024.1;;;5.6;70.3
45789;BME280;31492;54.856;26.318;2023-04-02T15:15:54;1024.2;;;5.6;70.4
45789;BME280;31492;54.856;26.318;2023-04-02T15:21:17;1024.3;;;5.6;70.7
45789;BME280;31492;54.856;26.318;2023-04-02T15:25:54;1024.3;;;5.6;70.7
45789;BME280;31492;54.856;26.318;2023-04-02T15:31:29;1024.4;;;5.6;70.4
45789;BME280;31492;54.856;26.318;2023-04-02T15:37:11;1024.4;;;5.5;70.5
45789;BME280;31492;54.856;26.318;2023-04-02T15:40:54;1024.4;;;5.5;70.6
45789;BME280;31492;54.856;26.318;2023-04-02T15:46:20;1024.4;;;5.5;70.6
45789;BME280;31492;54.856;26.318;2023-04-02T15:50:57;1024.4;;;5.5;70.5
45789;BME280;31492;54.856;26.318;2023-04-02T15:56:17;1024.5;;;5.5;70.5
45789;BME280;31492;54.856;26.318;2023-04-02T16:01:08;1024.6;;;5.4;70.7
45789;BME280;31492;54.856;26.318;2023-04-02T16:05:57;1024.7;;;5.4;70.8
45789;BME280;31492;54.856;26.318;2023-04-02T16:10:53;1024.8;;;5.4;70.8
45789;BME280;31492;54.856;26.318;2023-04-02T16:16:14;1024.9;;;5.5;70.5
45789;BME280;31492;54.856;26.318;2023-04-02T16:21:01;1025;;;5.4;70.6
45789;BME280;31492;54.856;26.318;2023-04-02T16:26:30;1025.1;;;5.4;70.5
45789;BME280;31492;54.856;26.318;2023-04-02T16:31:15;1025.1;;;5.4;70.6
45789;BME280;31492;54.856;26.318;2023-04-02T16:36:08;1025.2;;;5.4;70.7
45789;BME280;31492;54.856;26.318;2023-04-02T16:41:09;1025.3;;;5.4;70.6
45789;BME280;31492;54.856;26.318;2023-04-02T16:46:18;1025.3;;;5.4;70.4
45789;BME280;31492;54.856;26.318;2023-04-02T16:51:06;1025.4;;;5.3;70.3
45789;BME280;31492;54.856;26.318;2023-04-02T16:55:59;1025.4;;;5.2;69.7
45789;BME280;31492;54.856;26.318;2023-04-02T17:00:54;1025.5;;;5.1;69.9
45789;BME280;31492;54.856;26.318;2023-04-02T17:05:54;1025.7;;;5.1;69.9
45789;BME280;31492;54.856;26.318;2023-04-02T17:10:55;1025.7;;;5;70.1
45789;BME280;31492;54.856;26.318;2023-04-02T17:15:54;1025.8;;;4.9;70
45789;BME280;31492;54.856;26.318;2023-04-02T17:21:02;1025.9;;;4.7;69.9
45789;BME280;31492;54.856;26.318;2023-04-02T17:26:07;1026;;;4.7;70.3
45789;BME280;31492;54.856;26.318;2023-04-02T17:31:09;1026;;;4.6;70.5
45789;BME280;31492;54.856;26.318;2023-04-02T17:36:14;1026;;;4.6;70.4
45789;BME280;31492;54.856;26.318;2023-04-02T17:41:04;1026;;;4.5;70.5
45789;BME280;31492;54.856;26.318;2023-04-02T17:46:09;1026.1;;;4.5;70.5
45789;BME280;31492;54.856;26.318;2023-04-02T17:51:09;1026.2;;;4.5;70.4
45789;BME280;31492;54.856;26.318;2023-04-02T17:56:13;1026.2;;;4.4;70.3
45789;BME280;31492;54.856;26.318;2023-04-02T18:01:16;1026.3;;;4.4;70.4
45789;BME280;31492;54.856;26.318;2023-04-02T18:06:07;1026.3;;;4.4;70.3
45789;BME280;31492;54.856;26.318;2023-04-02T18:11:04;1026.4;;;4.4;70.3
45789;BME280;31492;54.856;26.318;2023-04-02T18:15:57;1026.4;;;4.4;70.6
45789;BME280;31492;54.856;26.318;2023-04-02T18:21:02;1026.5;;;4.3;70.4
45789;BME280;31492;54.856;26.318;2023-04-02T18:26:11;1026.5;;;4.4;70.4
45789;BME280;31492;54.856;26.318;2023-04-02T18:31:11;1026.6;;;4.4;70.3
45789;BME280;31492;54.856;26.318;2023-04-02T18:35:54;1026.6;;;4.4;70
45789;BME280;31492;54.856;26.318;2023-04-02T18:41:11;1026.6;;;4.4;70.1
45789;BME280;31492;54.856;26.318;2023-04-02T18:45:55;1026.6;;;4.4;69.6
45789;BME280;31492;54.856;26.318;2023-04-02T18:51:02;1026.7;;;4.3;69.3
45789;BME280;31492;54.856;26.318;2023-04-02T18:55:54;1026.7;;;4.3;69.4
45789;BME280;31492;54.856;26.318;2023-04-02T19:00:53;1026.7;;;4.2;69.8
45789;BME280;31492;54.856;26.318;2023-04-02T19:06:08;1026.8;;;4.1;69.9
45789;BME280;31492;54.856;26.318;2023-04-02T19:11:00;1026.8;;;4;68.2
45789;BME280;31492;54.856;26.318;2023-04-02T19:16:06;1026.8;;;4;68.4
45789;BME280;31492;54.856;26.318;2023-04-02T19:21:15;1026.8;;;3.9;68.9
45789;BME280;31492;54.856;26.318;2023-04-02T19:25:55;1026.8;;;3.8;69.1
45789;BME280;31492;54.856;26.318;2023-04-02T19:31:10;1026.8;;;3.6;69.2
45789;BME280;31492;54.856;26.318;2023-04-02T19:35:54;1026.9;;;3.6;69.3
45789;BME280;31492;54.856;26.318;2023-04-02T19:41:08;1027;;;3.4;69.2
45789;BME280;31492;54.856;26.318;2023-04-02T19:46:07;1027;;;3.4;69.3
45789;BME280;31492;54.856;26.318;2023-04-02T19:51:21;1027;;;3.4;69.3
45789;BME280;31492;54.856;26.318;2023-04-02T19:56:07;1027.1;;;3.4;69.2
45789;BME280;31492;54.856;26.318;2023-04-02T20:01:01;1027.2;;;3.1;69.4
45789;BME280;31492;54.856;26.318;2023-04-02T20:06:22;1027.2;;;3.1;69.3
45789;BME280;31492;54.856;26.318;2023-04-02T20:11:07;1027.2;;;3;68.9
45789;BME280;31492;54.856;26.318;2023-04-02T20:16:02;1027.3;;;2.9;69.3
45789;BME280;31492;54.856;26.318;2023-04-02T20:21:08;1027.3;;;2.8;68.6
45789;BME280;31492;54.856;26.318;2023-04-02T20:26:01;1027.4;;;2.7;69
45789;BME280;31492;54.856;26.318;2023-04-02T20:30:54;1027.4;;;2.6;68.9
45789;BME280;31492;54.856;26.318;2023-04-02T20:36:08;1027.5;;;2.5;69.2
45789;BME280;31492;54.856;26.318;2023-04-02T20:41:02;1027.5;;;2.5;69.3
45789;BME280;31492;54.856;26.318;2023-04-02T20:46:27;1027.5;;;2.4;69.3
45789;BME280;31492;54.856;26.318;2023-04-02T20:51:02;1027.5;;;2.4;68.7
45789;BME280;31492;54.856;26.318;2023-04-02T20:56:00;1027.6;;;2.3;68.5
45789;BME280;31492;54.856;26.318;2023-04-02T21:01:08;1027.6;;;2.2;68.5
45789;BME280;31492;54.856;26.318;2023-04-02T21:05:53;1027.6;;;2.2;68.8
45789;BME280;31492;54.856;26.318;2023-04-02T21:11:09;1027.6;;;2.2;69.2
45789;BME280;31492;54.856;26.318;2023-04-02T21:16:01;1027.7;;;2.1;69
45789;BME280;31492;54.856;26.318;2023-04-02T21:20:55;1027.7;;;2.1;68.7
45789;BME280;31492;54.856;26.318;2023-04-02T21:26:09;1027.7;;;2.1;67.7
45789;BME280;31492;54.856;26.318;2023-04-02T21:31:00;1027.7;;;2.1;68
45789;BME280;31492;54.856;26.318;2023-04-02T21:36:10;1027.8;;;2.1;67.6
45789;BME280;31492;54.856;26.318;2023-04-02T21:41:16;1027.8;;;2.1;67.1
45789;BME280;31492;54.856;26.318;2023-04-02T21:45:56;1027.8;;;2.1;66.4
45789;BME280;31492;54.856;26.318;2023-04-02T21:51:14;1027.8;;;2;66.3
45789;BME280;31492;54.856;26.318;2023-04-02T21:56:08;1027.9;;;1.9;66.2
45789;BME280;31492;54.856;26.318;2023-04-02T22:01:08;1027.9;;;1.9;66
45789;BME280;31492;54.856;26.318;2023-04-02T22:06:02;1028;;;1.9;65.5
45789;BME280;31492;54.856;26.318;2023-04-02T22:10:53;1028;;;1.8;63.9
45789;BME280;31492;54.856;26.318;2023-04-02T22:15:57;1028;;;1.8;64.2
45789;BME280;31492;54.856;26.318;2023-04-02T22:21:04;1028.1;;;1.7;64.5
45789;BME280;31492;54.856;26.318;2023-04-02T22:26:10;1028.1;;;1.7;64.5
45789;BME280;31492;54.856;26.318;2023-04-02T22:30:53;1028.1;;;1.6;64.1
45789;BME280;31492;54.856;26.318;2023-04-02T22:36:09;1028.2;;;1.6;63.8
45789;BME280;31492;54.856;26.318;2023-04-02T22:41:12;1028.2;;;1.5;63.7
45789;BME280;31492;54.856;26.318;2023-04-02T22:46:08;1028.3;;;1.4;63.2
45789;BME280;31492;54.856;26.318;2023-04-02T22:51:22;1028.3;;;1.4;63.2
45789;BME280;31492;54.856;26.318;2023-04-02T22:56:00;1028.3;;;1.3;63.6
45789;BME280;31492;54.856;26.318;2023-04-02T23:01:11;1028.3;;;1.3;63.2
45789;BME280;31492;54.856;26.318;2023-04-02T23:06:08;1028.4;;;1.3;63.3
45789;BME280;31492;54.856;26.318;2023-04-02T23:10:58;1028.4;;;1.3;63
45789;BME280;31492;54.856;26.318;2023-04-02T23:16:09;1028.5;;;1.3;63.8
45789;BME280;31492;54.856;26.318;2023-04-02T23:21:08;1028.5;;;1.2;63.9
45789;BME280;31492;54.856;26.318;2023-04-02T23:26:08;1028.5;;;1.2;63.7
45789;BME280;31492;54.856;26.318;2023-04-02T23:31:09;1028.6;;;1.1;63.5
45789;BME280;31492;54.856;26.318;2023-04-02T23:36:05;1028.5;;;1.2;63.8
45789;BME280;31492;54.856;26.318;2023-04-02T23:40:53;1028.6;;;1.2;63.4
45789;BME280;31492;54.856;26.318;2023-04-02T23:45:53;1028.6;;;1.1;63.3
45789;BME280;31492;54.856;26.318;2023-04-02T23:51:07;1028.7;;;1.1;63.5
45789;BME280;31492;54.856;26.318;2023-04-02T23:56:08;1028.7;;;1.1;63.4
